Time;durP1;ratioP1;P1;durP2;ratioP2;P2;SDS_P1;SDS_P2;PMS_P1;PMS_P2;Temp;Humidity;BMP_temperature;BMP_pressure;BME280_temperature;BME280_humidity;BME280_pressure;Samples;Min_cycle;Max_cycle;Signal;HPM_P1;HPM_P2
2021/07/26 00:03:23;;;;;;;7.93;4.97;;;;;;;;;;10463166;28;20029;-85
2021/07/26 00:08:24;;;;;;;10.37;3.90;;;;;;;;;;10447620;28;20029;-85
2021/07/26 00:13:25;;;;;;;5.57;4.40;;;;;;;;;;10436341;28;20031;-86
2021/07/26 00:18:28;;;;;;;7.53;4.30;;;;;;;;;;10459056;28;20048;-86
2021/07/26 00:23:29;;;;;;;5.03;4.05;;;;;;;;;;10460033;28;20033;-90
2021/07/26 00:28:30;;;;;;;6.60;4.03;;;;;;;;;;10442067;28;20029;-85
2021/07/26 00:34:07;;;;;;;5.68;4.28;;;;;;;;;;10448168;28;20040;-85
2021/07/26 00:39:08;;;;;;;;;;;;;;;;;;10457400;28;20037;-85
2021/07/26 00:44:09;;;;;;;8.63;4.22;;;;;;;;;;10452207;28;19991;-85
2021/07/26 00:49:11;;;;;;;6.15;4.47;;;;;;;;;;10458772;28;20033;-86
2021/07/26 00:54:12;;;;;;;5.68;3.97;;;;;;;;;;10429494;28;20235;-87
2021/07/26 00:59:14;;;;;;;4.60;3.90;;;;;;;;;;10450557;28;20044;-86
2021/07/26 01:04:16;;;;;;;5.28;3.97;;;;;;;;;;10437253;28;20031;-87
2021/07/26 01:09:16;;;;;;;5.75;4.25;;;;;;;;;;10416223;28;20029;-86
2021/07/26 01:14:17;;;;;;;6.22;4.00;;;;;;;;;;10416148;28;20029;-86
2021/07/26 01:19:17;;;;;;;6.50;3.73;;;;;;;;;;10415964;28;20044;-84
2021/07/26 01:24:18;;;;;;;5.13;3.97;;;;;;;;;;10415107;28;20455;-84
2021/07/26 01:29:18;;;;;;;6.57;4.30;;;;;;;;;;10416220;28;20454;-84
2021/07/26 01:34:19;;;;;;;5.35;4.15;;;;;;;;;;10416087;28;20025;-86
2021/07/26 01:39:19;;;;;;;8.43;3.73;;;;;;;;;;10414960;28;20125;-86
2021/07/26 01:44:19;;;;;;;4.83;3.97;;;;;;;;;;10415994;28;20044;-86
2021/07/26 01:49:57;;;;;;;5.07;3.80;;;;;;;;;;10414418;28;20029;-86
2021/07/26 01:54:57;;;;;;;4.45;4.00;;;;;;;;;;10415401;28;20088;-85
2021/07/26 01:59:58;;;;;;;4.40;4.00;;;;;;;;;;10444298;28;20084;-86
2021/07/26 02:04:58;;;;;;;6.53;4.20;;;;;;;;;;10455602;28;20041;-85
2021/07/26 02:09:59;;;;;;;5.47;3.50;;;;;;;;;;10455759;28;20480;-85
2021/07/26 02:15:00;;;;;;;5.93;4.00;;;;;;;;;;10456130;28;20053;-87
2021/07/26 02:20:01;;;;;;;6.05;3.60;;;;;;;;;;10441577;28;20033;-87
2021/07/26 02:25:01;;;;;;;5.73;3.73;;;;;;;;;;10455708;28;20029;-86
2021/07/26 02:30:02;;;;;;;6.53;4.03;;;;;;;;;;10441861;28;20021;-86
2021/07/26 02:35:03;;;;;;;5.88;4.18;;;;;;;;;;10459052;28;20032;-86
2021/07/26 02:40:04;;;;;;;5.03;3.88;;;;;;;;;;10450288;28;20452;-85
2021/07/26 02:45:05;;;;;;;6.43;3.53;;;;;;;;;;10459466;28;20029;-86
2021/07/26 02:50:06;;;;;;;4.32;3.92;;;;;;;;;;10462792;28;20064;-86
2021/07/26 02:55:07;;;;;;;5.32;3.67;;;;;;;;;;10491660;28;20056;-85
2021/07/26 03:00:08;;;;;;;5.20;3.88;;;;;;;;;;10450170;28;20041;-86
2021/07/26 03:05:08;;;;;;;5.03;4.07;;;;;;;;;;10421579;28;20029;-85
2021/07/26 03:10:09;;;;;;;4.70;3.65;;;;;;;;;;10435717;28;20056;-86
2021/07/26 03:15:10;;;;;;;4.70;4.10;;;;;;;;;;10442008;28;20037;-85
2021/07/26 03:20:12;;;;;;;9.20;3.72;;;;;;;;;;10448938;28;20058;-85
2021/07/26 03:25:12;;;;;;;4.63;3.83;;;;;;;;;;10417607;28;20087;-86
2021/07/26 03:30:13;;;;;;;7.30;4.15;;;;;;;;;;10437382;28;20049;-86
2021/07/26 03:35:15;;;;;;;4.38;3.78;;;;;;;;;;10435969;28;20520;-86
2021/07/26 03:40:16;;;;;;;4.03;3.63;;;;;;;;;;10450714;28;20056;-85
2021/07/26 03:45:19;;;;;;;3.55;3.20;;;;;;;;;;10445288;28;20057;-85
2021/07/26 03:50:19;;;;;;;4.20;3.80;;;;;;;;;;10396658;28;20026;-85
2021/07/26 03:55:27;;;;;;;5.10;3.50;;;;;;;;;;10431804;28;20072;-85
2021/07/26 04:00:29;;;;;;;7.88;3.70;;;;;;;;;;10451964;28;20041;-85
2021/07/26 04:05:58;;;;;;;5.60;3.83;;;;;;;;;;10447126;28;20468;-86
2021/07/26 04:10:59;;;;;;;3.85;3.47;;;;;;;;;;10425830;28;20108;-85
2021/07/26 04:15:59;;;;;;;5.45;3.58;;;;;;;;;;10418701;28;20044;-85
2021/07/26 04:21:07;;;;;;;4.63;3.37;;;;;;;;;;10430118;28;20033;-85
2021/07/26 04:26:08;;;;;;;3.80;3.50;;;;;;;;;;10426273;28;20053;-85
2021/07/26 04:31:08;;;;;;;3.70;3.33;;;;;;;;;;10459569;28;20072;-86
2021/07/26 04:36:09;;;;;;;4.60;3.40;;;;;;;;;;10445393;28;20116;-86
2021/07/26 04:41:09;;;;;;;3.95;3.50;;;;;;;;;;10445764;28;20533;-85
2021/07/26 04:46:10;;;;;;;6.97;3.43;;;;;;;;;;10458929;28;20112;-85
2021/07/26 04:51:10;;;;;;;5.07;3.80;;;;;;;;;;10450993;28;20485;-86
2021/07/26 04:56:11;;;;;;;4.33;3.87;;;;;;;;;;10430860;28;20426;-85
2021/07/26 05:01:11;;;;;;;4.00;3.60;;;;;;;;;;10415719;28;20068;-86
2021/07/26 05:06:11;;;;;;;4.77;3.43;;;;;;;;;;10418991;28;20025;-85
2021/07/26 05:11:12;;;;;;;8.07;4.20;;;;;;;;;;10416062;28;20388;-84
2021/07/26 05:16:12;;;;;;;15.13;4.72;;;;;;;;;;10416600;28;20022;-84
2021/07/26 05:21:13;;;;;;;14.10;4.70;;;;;;;;;;10415660;28;20087;-84
2021/07/26 05:26:13;;;;;;;10.07;4.60;;;;;;;;;;10410712;28;20447;-87
2021/07/26 05:31:15;;;;;;;9.97;4.33;;;;;;;;;;10412554;28;20809;-82
2021/07/26 05:36:15;;;;;;;8.40;5.07;;;;;;;;;;10409394;28;20455;-83
2021/07/26 05:41:16;;;;;;;40.45;7.45;;;;;;;;;;10413605;28;20476;-85
2021/07/26 05:46:17;;;;;;;28.38;7.20;;;;;;;;;;10418081;28;20041;-84
2021/07/26 05:51:17;;;;;;;13.97;6.20;;;;;;;;;;10415119;28;20045;-85
2021/07/26 05:56:17;;;;;;;20.03;6.20;;;;;;;;;;10406488;28;20389;-84
2021/07/26 06:06:40;;;;;;;38.65;6.40;;;;;;;;;;10414466;28;20029;-83
2021/07/26 06:11:41;;;;;;;14.05;5.45;;;;;;;;;;10413773;28;20026;-84
2021/07/26 06:16:43;;;;;;;11.30;5.07;;;;;;;;;;10414513;28;20030;-83
2021/07/26 06:21:51;;;;;;;7.22;4.97;;;;;;;;;;10413497;28;20076;-81
2021/07/26 06:26:55;;;;;;;;;;;;;;;;;;10415150;28;20033;-80
2021/07/26 06:31:57;;;;;;;11.75;5.18;;;;;;;;;;10414212;28;19917;-80
2021/07/26 06:36:58;;;;;;;11.65;5.22;;;;;;;;;;10414186;28;20064;-80
2021/07/26 06:41:58;;;;;;;11.80;5.43;;;;;;;;;;10414005;28;20062;-82
2021/07/26 06:46:58;;;;;;;6.90;4.60;;;;;;;;;;10413350;28;20155;-80
2021/07/26 06:51:59;;;;;;;13.17;5.37;;;;;;;;;;10413768;28;20527;-80
2021/07/26 06:56:59;;;;;;;10.37;4.57;;;;;;;;;;10418053;28;20041;-80
2021/07/26 07:02:00;;;;;;;9.40;5.25;;;;;;;;;;10441427;28;20028;-80
2021/07/26 07:07:02;;;;;;;6.73;4.43;;;;;;;;;;10440618;28;20105;-80
2021/07/26 07:12:03;;;;;;;7.90;4.90;;;;;;;;;;10440672;28;20438;-83
2021/07/26 07:17:03;;;;;;;8.65;5.07;;;;;;;;;;10479669;28;20450;-82
2021/07/26 07:22:04;;;;;;;6.80;4.80;;;;;;;;;;10499563;28;20353;-82
2021/07/26 07:27:04;;;;;;;6.73;4.70;;;;;;;;;;10451473;28;20072;-82
2021/07/26 07:32:05;;;;;;;5.93;4.77;;;;;;;;;;10467112;28;20033;-83
2021/07/26 07:37:08;;;;;;;10.65;4.80;;;;;;;;;;10462731;28;20539;-83
2021/07/26 07:42:08;;;;;;;5.60;4.30;;;;;;;;;;10442122;28;20025;-83
2021/07/26 07:47:11;;;;;;;7.75;4.90;;;;;;;;;;10462006;28;20078;-83
2021/07/26 07:52:12;;;;;;;7.45;4.93;;;;;;;;;;10459192;28;20033;-82
2021/07/26 07:57:13;;;;;;;8.93;4.80;;;;;;;;;;10447513;28;20045;-81
2021/07/26 08:02:14;;;;;;;7.28;4.55;;;;;;;;;;10420010;28;20435;-82
2021/07/26 08:07:14;;;;;;;6.90;4.53;;;;;;;;;;10420263;28;20165;-82
2021/07/26 08:12:15;;;;;;;7.43;5.10;;;;;;;;;;10419476;28;20160;-82
2021/07/26 08:17:15;;;;;;;9.38;4.97;;;;;;;;;;10419064;28;20037;-80
2021/07/26 08:22:15;;;;;;;5.77;4.50;;;;;;;;;;10418899;28;20496;-82
2021/07/26 08:27:16;;;;;;;8.03;5.03;;;;;;;;;;10417644;28;20029;-81
2021/07/26 08:32:16;;;;;;;7.70;4.40;;;;;;;;;;10418466;28;20049;-82
2021/07/26 08:37:30;;;;;;;6.70;4.60;;;;;;;;;;10418154;28;20454;-82
2021/07/26 08:42:31;;;;;;;6.22;4.60;;;;;;;;;;10417053;28;20030;-82
2021/07/26 08:47:33;;;;;;;7.22;4.32;;;;;;;;;;10399788;28;20045;-82
2021/07/26 08:52:38;;;;;;;9.57;4.90;;;;;;;;;;10417454;28;20033;-82
2021/07/26 08:57:43;;;;;;;9.65;5.20;;;;;;;;;;10425825;28;20040;-83
2021/07/26 09:02:43;;;;;;;8.20;4.90;;;;;;;;;;10477697;28;20031;-82
2021/07/26 09:07:46;;;;;;;6.45;4.40;;;;;;;;;;10472122;28;20352;-82
2021/07/26 09:12:54;;;;;;;5.82;4.60;;;;;;;;;;10481169;28;20052;-82
2021/07/26 09:17:56;;;;;;;9.13;4.35;;;;;;;;;;10472140;28;20040;-82
2021/07/26 09:23:17;;;;;;;7.45;4.53;;;;;;;;;;10462330;28;20027;-82
2021/07/26 09:28:20;;;;;;;9.05;4.20;;;;;;;;;;10498702;28;20036;-82
2021/07/26 09:33:24;;;;;;;6.57;4.35;;;;;;;;;;10478337;28;20159;-82
2021/07/26 09:38:24;;;;;;;7.32;4.40;;;;;;;;;;10484878;28;20383;-81
2021/07/26 09:43:25;;;;;;;6.70;4.33;;;;;;;;;;10474125;28;20021;-81
2021/07/26 09:48:27;;;;;;;6.68;4.63;;;;;;;;;;10480541;28;20052;-82
2021/07/26 09:53:28;;;;;;;9.32;5.22;;;;;;;;;;10484882;28;20021;-82
2021/07/26 09:58:40;;;;;;;6.03;4.25;;;;;;;;;;10467134;23;20496;-81
2021/07/26 10:03:43;;;;;;;7.85;4.85;;;;;;;;;;10484103;28;20060;-82
2021/07/26 10:08:43;;;;;;;9.30;4.75;;;;;;;;;;10497948;28;20028;-82
2021/07/26 10:13:47;;;;;;;5.60;4.50;;;;;;;;;;10467014;28;20028;-82
2021/07/26 10:18:49;;;;;;;6.70;4.50;;;;;;;;;;10483493;28;20029;-82
2021/07/26 10:23:49;;;;;;;4.72;4.20;;;;;;;;;;10497100;28;20021;-83
2021/07/26 10:28:52;;;;;;;9.10;5.07;;;;;;;;;;10497274;28;20028;-82
2021/07/26 10:34:06;;;;;;;6.30;4.82;;;;;;;;;;10497670;28;20107;-82
2021/07/26 10:39:10;;;;;;;7.25;5.03;;;;;;;;;;10469625;28;20041;-84
2021/07/26 10:44:17;;;;;;;8.25;4.53;;;;;;;;;;10481745;28;20028;-81
2021/07/26 10:49:17;;;;;;;6.30;4.68;;;;;;;;;;10496122;28;20456;-84
2021/07/26 10:54:38;;;;;;;7.10;4.80;;;;;;;;;;10482842;28;20158;-84
2021/07/26 11:00:25;;;;;;;8.85;4.78;;;;;;;;;;10548501;28;20541;-84
2021/07/26 11:05:25;;;;;;;10.73;5.45;;;;;;;;;;10518940;28;20083;-84
2021/07/26 11:10:44;;;;;;;8.30;4.80;;;;;;;;;;10558155;28;20450;-84
2021/07/26 11:15:52;;;;;;;5.47;4.50;;;;;;;;;;10551201;28;20066;-84
2021/07/26 11:21:00;;;;;;;8.80;5.18;;;;;;;;;;10588863;28;20100;-84
2021/07/26 11:26:02;;;;;;;7.53;5.13;;;;;;;;;;10558700;28;20414;-84
2021/07/26 11:31:03;;;;;;;7.40;5.10;;;;;;;;;;10567022;28;20100;-84
2021/07/26 11:36:07;;;;;;;10.18;5.72;;;;;;;;;;10577195;28;20123;-85
2021/07/26 11:41:19;;;;;;;9.88;5.95;;;;;;;;;;10542816;28;20047;-84
2021/07/26 11:46:21;;;;;;;10.43;5.43;;;;;;;;;;10572827;28;20059;-85
2021/07/26 11:51:27;;;;;;;10.57;6.22;;;;;;;;;;10533810;28;20063;-84
2021/07/26 11:56:31;;;;;;;13.18;6.43;;;;;;;;;;10544316;28;20429;-85
2021/07/26 12:01:31;;;;;;;13.13;6.50;;;;;;;;;;10499804;28;20422;-84
2021/07/26 12:06:56;;;;;;;10.57;6.77;;;;;;;;;;10482595;28;20036;-85
2021/07/26 12:12:15;;;;;;;17.55;6.40;;;;;;;;;;10489498;28;20470;-85
2021/07/26 12:17:24;;;;;;;17.33;6.28;;;;;;;;;;10500805;28;20059;-85
2021/07/26 12:22:24;;;;;;;25.60;7.07;;;;;;;;;;10495815;28;20052;-84
2021/07/26 12:27:27;;;;;;;26.97;7.00;;;;;;;;;;10500278;28;20056;-84
2021/07/26 12:32:28;;;;;;;24.75;7.10;;;;;;;;;;10500128;28;20438;-84
2021/07/26 12:37:29;;;;;;;18.45;7.68;;;;;;;;;;10498947;28;20107;-85
2021/07/26 12:42:29;;;;;;;17.85;7.40;;;;;;;;;;10499233;28;20199;-84
2021/07/26 12:47:33;;;;;;;16.57;6.90;;;;;;;;;;10501450;28;20461;-84
2021/07/26 12:52:33;;;;;;;23.77;6.93;;;;;;;;;;10499009;28;20025;-86
2021/07/26 12:57:34;;;;;;;21.20;6.87;;;;;;;;;;10498362;28;20376;-85
2021/07/26 13:02:35;;;;;;;16.23;6.70;;;;;;;;;;10498102;28;20056;-83
2021/07/26 13:07:35;;;;;;;15.48;6.78;;;;;;;;;;10496038;28;20037;-84
2021/07/26 13:12:36;;;;;;;15.13;6.57;;;;;;;;;;10495544;28;20032;-86
2021/07/26 13:17:37;;;;;;;20.67;6.50;;;;;;;;;;10495291;28;20454;-81
2021/07/26 13:22:38;;;;;;;15.65;6.70;;;;;;;;;;10496308;28;20029;-82
2021/07/26 13:27:39;;;;;;;18.65;6.35;;;;;;;;;;10497701;28;20486;-81
2021/07/26 13:32:39;;;;;;;14.65;6.65;;;;;;;;;;10494683;28;20060;-81
2021/07/26 13:37:40;;;;;;;15.63;6.63;;;;;;;;;;10478991;28;20031;-81
2021/07/26 13:42:40;;;;;;;12.48;6.65;;;;;;;;;;10496971;28;20064;-82
2021/07/26 13:47:41;;;;;;;13.23;6.53;;;;;;;;;;10493034;28;20032;-83
2021/07/26 13:52:41;;;;;;;11.65;6.10;;;;;;;;;;10478770;28;20380;-83
2021/07/26 13:57:42;;;;;;;13.80;6.33;;;;;;;;;;10511813;28;20047;-82
2021/07/26 14:02:42;;;;;;;9.97;6.30;;;;;;;;;;10540138;28;20944;-83
2021/07/26 14:07:43;;;;;;;14.15;6.45;;;;;;;;;;10537330;28;20032;-82
2021/07/26 14:12:43;;;;;;;11.00;6.20;;;;;;;;;;10538091;28;20099;-83
2021/07/26 14:17:44;;;;;;;14.13;6.27;;;;;;;;;;10540572;28;20072;-82
2021/07/26 14:22:44;;;;;;;11.27;6.18;;;;;;;;;;10540252;28;20027;-82
2021/07/26 14:27:45;;;;;;;11.13;5.87;;;;;;;;;;10538726;28;20044;-83
2021/07/26 14:32:45;;;;;;;13.13;5.68;;;;;;;;;;10539536;28;20449;-83
2021/07/26 14:37:47;;;;;;;14.32;6.50;;;;;;;;;;10551682;28;20167;-82
2021/07/26 14:42:47;;;;;;;14.07;5.18;;;;;;;;;;10551235;28;20020;-83
2021/07/26 14:47:48;;;;;;;13.45;5.88;;;;;;;;;;10552309;28;20161;-82
2021/07/26 14:52:48;;;;;;;14.37;5.63;;;;;;;;;;10571044;28;20023;-82
2021/07/26 14:57:49;;;;;;;8.27;4.63;;;;;;;;;;10563677;28;20475;-82
2021/07/26 15:02:49;;;;;;;11.10;5.07;;;;;;;;;;10552967;28;20028;-83
2021/07/26 15:07:49;;;;;;;10.03;4.83;;;;;;;;;;10588722;28;20536;-82
2021/07/26 15:12:50;;;;;;;9.45;5.28;;;;;;;;;;10579380;28;20024;-82
2021/07/26 15:17:51;;;;;;;11.45;5.05;;;;;;;;;;10553880;28;20035;-82
2021/07/26 15:22:51;;;;;;;26.93;6.60;;;;;;;;;;10571788;28;20027;-84
2021/07/26 16:03:05;;;;;;;8.07;4.32;;;;;;;;;;10474271;27;20577;-87
2021/07/26 16:08:09;;;;;;;7.50;3.78;;;;;;;;;;10447860;28;20396;-84
2021/07/26 16:13:09;;;;;;;7.80;4.13;;;;;;;;;;10435591;28;20503;-85
2021/07/26 16:18:10;;;;;;;9.43;4.30;;;;;;;;;;10432093;28;20036;-87
2021/07/26 16:23:13;;;;;;;9.73;3.70;;;;;;;;;;10459228;28;20079;-87
2021/07/26 16:28:14;;;;;;;8.73;3.97;;;;;;;;;;10435203;28;20440;-87
2021/07/26 16:33:14;;;;;;;13.30;4.23;;;;;;;;;;10448974;28;20056;-87
2021/07/26 16:38:14;;;;;;;6.50;3.27;;;;;;;;;;10403739;28;20033;-87
2021/07/26 16:43:15;;;;;;;5.47;2.57;;;;;;;;;;10449034;28;20443;-87
2021/07/26 16:48:15;;;;;;;5.83;2.40;;;;;;;;;;10451350;28;20033;-88
2021/07/26 16:53:18;;;;;;;6.37;2.87;;;;;;;;;;10449739;28;20451;-88
2021/07/26 16:58:19;;;;;;;8.00;2.60;;;;;;;;;;10441360;28;20025;-88
2021/07/26 17:03:19;;;;;;;6.28;2.40;;;;;;;;;;10432134;28;20034;-87
2021/07/26 17:08:20;;;;;;;7.93;2.80;;;;;;;;;;10420510;28;20025;-88
2021/07/26 17:13:20;;;;;;;4.73;2.13;;;;;;;;;;10420635;28;20052;-88
2021/07/26 17:18:21;;;;;;;3.07;2.17;;;;;;;;;;10420204;28;20443;-88
2021/07/26 17:23:21;;;;;;;6.37;2.37;;;;;;;;;;10434335;28;20968;-88
2021/07/26 17:28:21;;;;;;;3.93;2.50;;;;;;;;;;10434109;28;20472;-85
2021/07/26 17:33:22;;;;;;;5.83;2.67;;;;;;;;;;10420289;28;20037;-87
2021/07/26 17:38:22;;;;;;;3.67;2.37;;;;;;;;;;10431459;28;20060;-88
2021/07/26 17:43:24;;;;;;;10.10;2.37;;;;;;;;;;10441095;28;20041;-88
2021/07/26 17:48:24;;;;;;;6.65;2.28;;;;;;;;;;10417725;28;20025;-88
2021/07/26 17:53:28;;;;;;;4.20;2.53;;;;;;;;;;10447109;28;20029;-87
2021/07/26 17:58:28;;;;;;;7.57;2.70;;;;;;;;;;10440553;28;20053;-88
2021/07/26 18:03:29;;;;;;;4.60;2.17;;;;;;;;;;10418627;28;20026;-89
2021/07/26 18:08:29;;;;;;;5.57;2.30;;;;;;;;;;10417619;28;20400;-88
2021/07/26 18:13:33;;;;;;;4.63;2.40;;;;;;;;;;10399678;28;20021;-88
2021/07/26 18:18:33;;;;;;;4.05;2.30;;;;;;;;;;10431368;28;20032;-88
2021/07/26 18:23:34;;;;;;;4.20;2.20;;;;;;;;;;10426794;28;20379;-88
2021/07/26 18:28:34;;;;;;;9.73;2.45;;;;;;;;;;10409313;28;20412;-88
2021/07/26 18:33:35;;;;;;;5.83;2.40;;;;;;;;;;10412627;28;20125;-88
2021/07/26 18:38:35;;;;;;;4.53;2.50;;;;;;;;;;10411271;28;20526;-88
2021/07/26 18:43:35;;;;;;;5.60;2.50;;;;;;;;;;10409581;28;20349;-87
2021/07/26 18:48:40;;;;;;;4.40;2.63;;;;;;;;;;10420092;28;21051;-88
2021/07/26 18:53:41;;;;;;;5.78;2.65;;;;;;;;;;10415371;28;20486;-88
2021/07/26 18:58:42;;;;;;;4.97;2.50;;;;;;;;;;10416387;28;20073;-89
2021/07/26 19:03:42;;;;;;;6.28;2.67;;;;;;;;;;10431844;28;20031;-89
2021/07/26 19:08:42;;;;;;;8.20;2.80;;;;;;;;;;10416224;28;20084;-88
2021/07/26 19:13:43;;;;;;;4.67;2.47;;;;;;;;;;10425557;28;20037;-89
2021/07/26 19:18:43;;;;;;;6.80;2.50;;;;;;;;;;10433264;28;20064;-89
2021/07/26 19:23:43;;;;;;;6.10;2.60;;;;;;;;;;10392320;28;20053;-94
2021/07/26 19:28:44;;;;;;;8.07;2.67;;;;;;;;;;10406977;28;20025;-93
2021/07/26 19:33:44;;;;;;;5.93;2.60;;;;;;;;;;10395240;28;20025;-93
2021/07/26 19:38:45;;;;;;;16.25;2.70;;;;;;;;;;10397077;28;20439;-92
2021/07/26 19:43:46;;;;;;;11.07;2.50;;;;;;;;;;10401661;28;20479;-92
2021/07/26 19:48:46;;;;;;;7.13;2.80;;;;;;;;;;10411044;28;20025;-91
2021/07/26 19:53:47;;;;;;;10.45;2.85;;;;;;;;;;10413835;28;20026;-90
2021/07/26 19:58:48;;;;;;;9.93;3.38;;;;;;;;;;10401439;28;20548;-91
2021/07/26 20:03:48;;;;;;;6.05;3.00;;;;;;;;;;10387752;28;20388;-88
2021/07/26 20:08:48;;;;;;;9.53;2.73;;;;;;;;;;10427956;28;20100;-87
2021/07/26 20:13:49;;;;;;;9.23;2.80;;;;;;;;;;10416883;28;20104;-87
2021/07/26 20:18:50;;;;;;;9.27;3.65;;;;;;;;;;10420335;28;20033;-84
2021/07/26 20:23:50;;;;;;;13.10;2.80;;;;;;;;;;10434787;28;20423;-83
2021/07/26 20:28:51;;;;;;;9.90;3.00;;;;;;;;;;10412244;28;20034;-85
2021/07/26 20:33:52;;;;;;;5.85;3.05;;;;;;;;;;10426687;28;20030;-85
2021/07/26 20:38:53;;;;;;;5.63;2.50;;;;;;;;;;10442650;28;20524;-83
2021/07/26 20:43:54;;;;;;;11.52;3.75;;;;;;;;;;10430089;28;20124;-81
2021/07/26 20:48:54;;;;;;;6.20;3.00;;;;;;;;;;10436650;28;20042;-83
2021/07/26 20:53:54;;;;;;;7.90;3.10;;;;;;;;;;10420477;28;20482;-83
2021/07/26 20:58:55;;;;;;;7.40;3.08;;;;;;;;;;10408976;28;20463;-84
2021/07/26 21:03:55;;;;;;;7.53;3.17;;;;;;;;;;10411459;28;20365;-81
2021/07/26 21:08:56;;;;;;;10.40;3.43;;;;;;;;;;10442724;28;20454;-82
2021/07/26 21:14:00;;;;;;;9.87;3.30;;;;;;;;;;10454560;28;20087;-85
2021/07/26 21:19:05;;;;;;;6.30;3.00;;;;;;;;;;10452417;28;20036;-84
2021/07/26 21:24:06;;;;;;;8.35;3.47;;;;;;;;;;10430739;28;20109;-84
2021/07/26 21:29:07;;;;;;;6.40;2.95;;;;;;;;;;10416945;28;20124;-83
2021/07/26 21:34:07;;;;;;;6.75;2.95;;;;;;;;;;10418135;28;20078;-83
2021/07/26 21:39:07;;;;;;;10.77;3.50;;;;;;;;;;10401084;28;20084;-82
2021/07/26 21:44:09;;;;;;;3.67;2.50;;;;;;;;;;10429517;28;20108;-82
2021/07/26 21:49:09;;;;;;;6.43;3.00;;;;;;;;;;10398655;28;20400;-80
2021/07/26 21:54:10;;;;;;;6.60;3.10;;;;;;;;;;10422222;28;20420;-79
2021/07/26 21:59:10;;;;;;;7.60;3.27;;;;;;;;;;10403951;28;20471;-82
2021/07/26 22:04:11;;;;;;;5.32;3.10;;;;;;;;;;10431698;28;20104;-79
2021/07/26 22:09:12;;;;;;;6.28;2.58;;;;;;;;;;10420098;28;20045;-88
2021/07/26 22:14:12;;;;;;;5.97;2.90;;;;;;;;;;10433100;28;20029;-88
2021/07/26 22:19:13;;;;;;;6.00;2.67;;;;;;;;;;10425022;28;20052;-86
2021/07/26 22:24:13;;;;;;;4.45;2.50;;;;;;;;;;10410846;28;20022;-86
2021/07/26 22:29:13;;;;;;;8.23;2.93;;;;;;;;;;10419673;28;20037;-87
2021/07/26 22:34:14;;;;;;;5.80;3.07;;;;;;;;;;10426752;28;20112;-87
2021/07/26 22:39:14;;;;;;;8.40;2.35;;;;;;;;;;10423779;28;20030;-88
2021/07/26 22:44:15;;;;;;;5.50;2.45;;;;;;;;;;10424706;28;20064;-89
2021/07/26 22:49:17;;;;;;;4.57;2.40;;;;;;;;;;10424526;28;20029;-86
2021/07/26 22:54:17;;;;;;;4.28;2.50;;;;;;;;;;10429016;28;20885;-86
2021/07/26 22:59:17;;;;;;;2.57;2.00;;;;;;;;;;10435527;28;20049;-84
2021/07/26 23:04:18;;;;;;;4.37;2.50;;;;;;;;;;10430661;28;20956;-85
2021/07/26 23:09:18;;;;;;;4.83;2.77;;;;;;;;;;10430025;28;20036;-84
2021/07/26 23:14:19;;;;;;;7.43;2.27;;;;;;;;;;10416549;28;20124;-85
2021/07/26 23:19:19;;;;;;;5.30;2.30;;;;;;;;;;10401460;28;20040;-85
2021/07/26 23:24:20;;;;;;;6.45;2.35;;;;;;;;;;10427492;28;20040;-85
2021/07/26 23:29:20;;;;;;;3.40;2.27;;;;;;;;;;10418572;28;20435;-86
2021/07/26 23:34:21;;;;;;;3.73;1.87;;;;;;;;;;10416149;28;20108;-86
2021/07/26 23:39:21;;;;;;;4.63;1.93;;;;;;;;;;10428762;28;20044;-86
2021/07/26 23:44:22;;;;;;;5.63;2.30;;;;;;;;;;10423451;28;20457;-86
2021/07/26 23:49:22;;;;;;;4.03;2.22;;;;;;;;;;10427715;28;20040;-86
2021/07/26 23:54:23;;;;;;;3.37;2.17;;;;;;;;;;10428131;28;20021;-86
2021/07/26 23:59:24;;;;;;;3.20;2.13;;;;;;;;;;10408564;28;20497;-86
